Portada
METAR-TAF:

METAR-TAF

Aeroports :

Lahaina, Hawaii, Estats Units d'Amèrica

latitud: 21-01N, longitud: 156-38W, altitud: 40 m

METAR: manca

Hora: 00:26 (10:26 UTC)

Pronòstic

L'informe es va fer fa 10 hores i 55 minuts, a les 23:31 UTC
Pronòstic vàlid del 25 a les 00 UTC al 25 a les 24 UTC
Vent 15 kt del Est/Nord-Est amb ràfegues de 23 kt
Visibilitat: 10 km
Núvols disperses a una alçada de 2500 ft
A partir de les 25 a les 0600 UTC
Vent 12 kt del Nord-Est
Visibilitat: 10 km
Escasses núvols a una alçada de 2500 ft
A partir de les 25 a les 2000 UTC
Vent 13 kt del Est/Nord-Est amb ràfegues de 19 kt
Visibilitat: 10 km
Núvols disperses a una alçada de 2500 ft

TAF: PHJH 242331Z 2500/2524 06015G23KT P6SM SCT025 FM250600 05012KT P6SM FEW025 FM252000 07013G19KT P6SM SCT025 AMD NOT SKED

Observacions i pronòstics meteorològics de més de 4000 aeroports (METAR i TAF).

Les estacions disponibles són els punts grocs i vermells al mapa.

Posi el ratolí al punt desitjat per veure el nom de l'estació.

Feu clic per veure les observacions i els pronòstics meteorològics.

Per canviar el mapa: feu clic els botons verds amb una creu de color negre per apropar; al botó verd amb un guió per allunyar la imatge; o en les fletxes verdes per a mapes adjacents.


METAR-TAF: